createdAt,value
2018-11-14T00:00:50.358Z,5.20
2018-11-14T00:01:50.417Z,5.40
2018-11-14T00:02:50.372Z,4.50
2018-11-14T00:03:50.367Z,4.70
2018-11-14T00:04:50.320Z,4.80
2018-11-14T00:05:50.374Z,4.80
2018-11-14T00:06:50.342Z,4.80
2018-11-14T00:07:50.324Z,4.40
2018-11-14T00:08:50.341Z,4.50
2018-11-14T00:09:50.336Z,4.70
2018-11-14T00:10:50.340Z,4.60
2018-11-14T00:11:50.279Z,4.80
2018-11-14T00:12:50.279Z,4.70
2018-11-14T00:13:50.255Z,4.80
2018-11-14T00:14:50.242Z,5.60
2018-11-14T00:15:50.235Z,5.00
2018-11-14T00:16:50.268Z,5.40
2018-11-14T00:17:50.210Z,5.20
2018-11-14T00:18:50.242Z,5.40
2018-11-14T00:19:50.193Z,5.50
2018-11-14T00:20:50.133Z,5.80
2018-11-14T00:21:50.148Z,5.50
2018-11-14T00:22:50.167Z,6.00
2018-11-14T00:23:50.178Z,5.90
2018-11-14T00:24:50.178Z,5.80
2018-11-14T00:25:50.122Z,5.30
2018-11-14T00:26:50.273Z,5.50
2018-11-14T00:27:50.162Z,4.90
2018-11-14T00:28:50.104Z,5.30
2018-11-14T00:29:50.084Z,5.00
2018-11-14T00:30:50.078Z,5.20
2018-11-14T00:31:50.067Z,5.60
2018-11-14T00:32:50.082Z,5.20
2018-11-14T00:33:50.004Z,5.60
2018-11-14T00:34:50.109Z,5.60
2018-11-14T00:35:50.020Z,5.70
2018-11-14T00:36:49.958Z,5.50
2018-11-14T00:37:50.193Z,5.60
2018-11-14T00:38:50.006Z,5.60
2018-11-14T00:39:49.970Z,5.30
2018-11-14T00:40:49.964Z,6.40
2018-11-14T00:41:49.970Z,6.20
2018-11-14T00:42:49.963Z,6.20
2018-11-14T00:43:49.946Z,5.30
2018-11-14T00:44:49.871Z,6.40
2018-11-14T00:45:49.934Z,5.30
2018-11-14T00:46:49.901Z,5.10
2018-11-14T00:47:49.845Z,6.00
2018-11-14T00:48:49.868Z,5.70
2018-11-14T00:49:49.891Z,6.20
2018-11-14T00:50:49.865Z,5.90
2018-11-14T00:51:49.868Z,6.20
2018-11-14T00:52:49.834Z,6.30
2018-11-14T00:53:49.862Z,6.30
2018-11-14T00:54:49.808Z,6.70
2018-11-14T00:55:49.821Z,6.60
2018-11-14T00:56:49.816Z,6.80
2018-11-14T00:57:49.776Z,6.70
2018-11-14T00:58:49.770Z,6.00
2018-11-14T00:59:49.832Z,7.00
2018-11-14T01:00:49.741Z,6.50
2018-11-14T01:01:49.685Z,6.20
2018-11-14T01:02:49.719Z,6.50
2018-11-14T01:03:49.735Z,6.00
2018-11-14T01:04:49.703Z,5.80
2018-11-14T01:05:49.682Z,6.20
2018-11-14T01:06:49.707Z,6.20
2018-11-14T01:07:49.618Z,6.40
2018-11-14T01:08:49.690Z,6.30
2018-11-14T01:09:49.593Z,6.80
2018-11-14T01:10:49.642Z,5.90
2018-11-14T01:11:49.619Z,6.20
2018-11-14T01:12:49.843Z,6.40
2018-11-14T01:13:49.560Z,6.20
2018-11-14T01:14:49.588Z,6.90
2018-11-14T01:15:49.566Z,6.40
2018-11-14T01:16:49.568Z,6.80
2018-11-14T01:17:49.504Z,6.50
2018-11-14T01:18:49.494Z,6.20
2018-11-14T01:19:49.571Z,6.60
2018-11-14T01:20:49.520Z,6.00
2018-11-14T01:21:49.537Z,6.40
2018-11-14T01:22:49.498Z,6.90
2018-11-14T01:23:49.495Z,6.90
2018-11-14T01:24:49.474Z,6.10
2018-11-14T01:25:49.500Z,5.90
2018-11-14T01:26:49.404Z,6.90
2018-11-14T01:27:49.439Z,7.10
2018-11-14T01:28:49.428Z,6.60
2018-11-14T01:29:49.476Z,6.50
2018-11-14T01:30:49.415Z,6.30
2018-11-14T01:31:49.397Z,6.40
2018-11-14T01:32:49.388Z,5.70
2018-11-14T01:33:49.376Z,6.30
2018-11-14T01:34:49.400Z,6.60
2018-11-14T01:35:49.415Z,6.00
2018-11-14T01:36:49.485Z,6.10
2018-11-14T01:37:49.288Z,6.40
2018-11-14T01:38:49.317Z,6.30
2018-11-14T01:39:49.310Z,6.80
2018-11-14T01:40:49.255Z,6.50
2018-11-14T01:41:49.332Z,5.80
2018-11-14T01:42:49.281Z,6.00
2018-11-14T01:43:49.271Z,6.30
2018-11-14T01:44:49.254Z,6.10
2018-11-14T01:45:49.246Z,6.50
2018-11-14T01:46:49.347Z,6.60
2018-11-14T01:47:49.227Z,6.40
2018-11-14T01:48:49.166Z,5.70
2018-11-14T01:49:49.199Z,6.40
2018-11-14T01:50:49.266Z,6.80
2018-11-14T01:51:49.186Z,6.40
2018-11-14T01:52:49.252Z,6.60
2018-11-14T01:53:49.161Z,6.60
2018-11-14T01:54:49.150Z,6.60
2018-11-14T01:55:49.138Z,6.40
2018-11-14T01:56:49.124Z,6.10
2018-11-14T01:57:49.147Z,6.10
2018-11-14T01:58:49.065Z,6.10
2018-11-14T01:59:49.102Z,5.70
2018-11-14T02:00:49.078Z,6.40
2018-11-14T02:01:49.071Z,5.80
2018-11-14T02:02:49.090Z,6.10
2018-11-14T02:03:49.052Z,6.10
2018-11-14T02:04:49.069Z,5.90
2018-11-14T02:05:49.068Z,6.70
2018-11-14T02:06:49.011Z,6.60
2018-11-14T02:07:48.956Z,6.30
2018-11-14T02:08:48.945Z,6.60
2018-11-14T02:09:48.933Z,6.00
2018-11-14T02:10:49.006Z,6.70
2018-11-14T02:11:48.977Z,6.50
2018-11-14T02:12:48.977Z,6.90
2018-11-14T02:13:48.936Z,6.30
2018-11-14T02:14:48.878Z,7.40
2018-11-14T02:15:48.881Z,6.90
2018-11-14T02:16:48.900Z,6.80
2018-11-14T02:17:48.946Z,7.00
2018-11-14T02:18:48.876Z,7.00
2018-11-14T02:19:48.872Z,6.30
2018-11-14T02:20:48.821Z,7.00
2018-11-14T02:21:48.883Z,6.40
2018-11-14T02:22:48.855Z,6.70
2018-11-14T02:23:48.877Z,6.30
2018-11-14T02:24:48.812Z,6.40
2018-11-14T02:25:48.803Z,6.90
2018-11-14T02:26:48.742Z,6.40
2018-11-14T02:27:48.784Z,6.40
2018-11-14T02:28:48.799Z,6.40
2018-11-14T02:29:48.765Z,6.40
2018-11-14T02:30:48.747Z,5.60
2018-11-14T02:31:48.796Z,5.90
2018-11-14T02:32:48.699Z,6.70
2018-11-14T02:33:48.677Z,6.70
2018-11-14T02:34:48.660Z,6.60
2018-11-14T02:35:48.695Z,6.50
2018-11-14T02:36:48.710Z,6.60
2018-11-14T02:37:48.737Z,7.30
2018-11-14T02:38:48.618Z,7.00
2018-11-14T02:39:48.621Z,7.00
2018-11-14T02:40:48.671Z,7.20
2018-11-14T02:41:48.631Z,7.10
2018-11-14T02:42:48.623Z,6.70
2018-11-14T02:43:48.568Z,6.60
2018-11-14T02:44:48.594Z,7.00
2018-11-14T02:45:48.702Z,7.20
2018-11-14T02:46:48.571Z,6.80
2018-11-14T02:47:48.593Z,7.20
2018-11-14T02:48:48.548Z,7.80
2018-11-14T02:49:48.498Z,7.20
2018-11-14T02:50:48.564Z,7.20
2018-11-14T02:51:48.498Z,8.00
2018-11-14T02:52:48.511Z,7.60
2018-11-14T02:53:48.498Z,7.80
2018-11-14T02:54:48.497Z,7.50
2018-11-14T02:55:48.514Z,7.90
2018-11-14T02:56:48.459Z,7.50
2018-11-14T02:57:48.456Z,7.70
2018-11-14T02:58:48.464Z,6.90
2018-11-14T02:59:48.435Z,7.60
2018-11-14T03:00:48.471Z,7.70
2018-11-14T03:01:48.410Z,7.50
2018-11-14T03:02:48.404Z,6.70
2018-11-14T03:03:48.389Z,7.00
2018-11-14T03:04:48.374Z,7.30
2018-11-14T03:05:48.413Z,7.20
2018-11-14T03:06:48.361Z,7.00
2018-11-14T03:07:48.339Z,7.00
2018-11-14T03:08:48.327Z,7.20
2018-11-14T03:09:48.303Z,7.50
2018-11-14T03:10:48.264Z,7.40
2018-11-14T03:11:48.307Z,7.70
2018-11-14T03:12:48.315Z,8.10
2018-11-14T03:13:48.273Z,6.90
2018-11-14T03:14:48.261Z,7.40
2018-11-14T03:15:48.265Z,7.40
2018-11-14T03:16:48.242Z,7.90
2018-11-14T03:17:48.283Z,7.40
2018-11-14T03:18:48.216Z,7.30
2018-11-14T03:19:48.208Z,7.70
2018-11-14T03:20:48.196Z,7.40
2018-11-14T03:21:48.182Z,7.40
2018-11-14T03:22:48.203Z,7.60
2018-11-14T03:23:48.173Z,7.20
2018-11-14T03:24:48.152Z,7.70
2018-11-14T03:25:48.124Z,7.50
2018-11-14T03:26:48.086Z,8.00
2018-11-14T03:27:48.119Z,7.40
2018-11-14T03:28:48.108Z,7.20
2018-11-14T03:29:48.123Z,6.80
2018-11-14T03:30:48.127Z,7.30
2018-11-14T03:31:48.103Z,7.70
2018-11-14T03:32:48.068Z,7.30
2018-11-14T03:33:48.058Z,6.90
2018-11-14T03:34:48.045Z,6.90
2018-11-14T03:35:48.034Z,7.10
2018-11-14T03:36:48.205Z,6.70
2018-11-14T03:37:48.039Z,7.20
2018-11-14T03:38:48.006Z,6.80
2018-11-14T03:39:47.988Z,6.60
2018-11-14T03:40:47.977Z,6.30
2018-11-14T03:41:48.019Z,6.10
2018-11-14T03:42:48.083Z,6.40
2018-11-14T03:43:47.947Z,7.00
2018-11-14T03:44:47.931Z,6.70
2018-11-14T03:45:47.942Z,6.90
2018-11-14T03:46:47.895Z,7.10
2018-11-14T03:47:47.908Z,6.70
2018-11-14T03:48:47.848Z,6.70
2018-11-14T03:49:47.888Z,6.80
2018-11-14T03:50:47.867Z,6.70
2018-11-14T03:51:47.888Z,6.90
2018-11-14T03:52:47.895Z,7.10
2018-11-14T03:53:47.983Z,7.50
2018-11-14T03:54:47.956Z,7.80
2018-11-14T03:55:47.813Z,7.80
2018-11-14T03:56:47.827Z,8.20
2018-11-14T03:57:47.797Z,7.50
2018-11-14T03:58:47.782Z,7.60
2018-11-14T03:59:47.797Z,7.10
2018-11-14T04:00:47.766Z,8.10
2018-11-14T04:01:47.747Z,7.80
2018-11-14T04:02:47.739Z,7.80
2018-11-14T04:03:47.724Z,7.90
2018-11-14T04:04:47.696Z,8.20
2018-11-14T04:05:47.701Z,8.10
2018-11-14T04:06:47.704Z,8.20
2018-11-14T04:07:47.676Z,8.30
2018-11-14T04:08:47.742Z,8.50
2018-11-14T04:09:47.660Z,8.80
2018-11-14T04:10:47.614Z,8.30
2018-11-14T04:11:47.637Z,8.40
2018-11-14T04:12:47.656Z,8.40
2018-11-14T04:13:47.650Z,8.40
2018-11-14T04:14:47.581Z,9.00
2018-11-14T04:15:47.590Z,8.90
2018-11-14T04:16:47.540Z,9.00
2018-11-14T04:17:47.566Z,9.00
2018-11-14T04:18:47.620Z,8.70
2018-11-14T04:19:47.551Z,8.30
2018-11-14T04:20:47.537Z,9.30
2018-11-14T04:21:47.527Z,8.90
2018-11-14T04:22:47.512Z,8.50
2018-11-14T04:23:47.537Z,8.90
2018-11-14T04:24:47.505Z,8.40
2018-11-14T04:25:47.479Z,8.80
2018-11-14T04:26:47.499Z,8.60
2018-11-14T04:27:47.465Z,8.70
2018-11-14T04:28:47.452Z,9.00
2018-11-14T04:29:47.439Z,9.00
2018-11-14T04:30:47.434Z,8.20
2018-11-14T04:31:47.421Z,8.60
2018-11-14T04:32:47.452Z,9.00
2018-11-14T04:33:47.357Z,9.00
2018-11-14T04:34:47.381Z,10.10
2018-11-14T04:35:47.334Z,8.70
2018-11-14T04:36:47.344Z,9.40
2018-11-14T04:37:47.355Z,9.40
2018-11-14T04:38:47.376Z,10.00
2018-11-14T04:39:47.374Z,9.10
2018-11-14T04:40:47.316Z,8.80
2018-11-14T04:41:47.316Z,9.10
2018-11-14T04:42:47.265Z,9.50
2018-11-14T04:43:47.281Z,9.70
2018-11-14T04:44:47.309Z,9.50
2018-11-14T04:45:47.350Z,9.40
2018-11-14T04:46:47.262Z,9.90
2018-11-14T04:47:47.268Z,10.50
2018-11-14T04:48:47.230Z,11.30
2018-11-14T04:49:47.234Z,11.50
2018-11-14T04:50:47.299Z,10.40
2018-11-14T04:51:47.172Z,11.00
2018-11-14T04:52:47.185Z,10.60
2018-11-14T04:53:47.130Z,12.00
2018-11-14T04:54:47.172Z,11.10
2018-11-14T04:55:47.363Z,9.80
2018-11-14T04:56:47.143Z,9.40
2018-11-14T04:57:47.156Z,9.50
2018-11-14T04:58:47.118Z,9.40
2018-11-14T04:59:47.117Z,9.30
2018-11-14T05:00:47.088Z,9.20
2018-11-14T05:01:47.092Z,8.90
2018-11-14T05:02:47.124Z,9.50
2018-11-14T05:03:47.089Z,9.90
2018-11-14T05:04:47.010Z,9.10
2018-11-14T05:05:47.041Z,9.30
2018-11-14T05:06:47.037Z,9.50
2018-11-14T05:07:47.017Z,9.30
2018-11-14T05:08:47.050Z,10.50
2018-11-14T05:09:46.995Z,10.30
2018-11-14T05:10:46.984Z,10.00
2018-11-14T05:11:46.979Z,10.50
2018-11-14T05:12:46.966Z,10.50
2018-11-14T05:13:46.944Z,10.20
2018-11-14T05:14:46.949Z,9.90
2018-11-14T05:15:46.895Z,10.90
2018-11-14T05:16:46.921Z,9.70
2018-11-14T05:17:46.864Z,10.50
2018-11-14T05:18:46.941Z,10.80
2018-11-14T05:19:46.912Z,10.70
2018-11-14T05:20:46.848Z,10.50
2018-11-14T05:21:46.871Z,10.40
2018-11-14T05:22:46.858Z,10.70
2018-11-14T05:23:46.882Z,10.30
2018-11-14T05:24:46.921Z,10.50
2018-11-14T05:25:46.772Z,10.70
2018-11-14T05:26:46.804Z,10.50
2018-11-14T05:27:46.800Z,10.60
2018-11-14T05:28:46.821Z,10.20
2018-11-14T05:29:46.790Z,11.70
2018-11-14T05:30:46.782Z,10.70
2018-11-14T05:31:46.791Z,10.80
2018-11-14T05:32:46.784Z,10.20
2018-11-14T05:33:46.741Z,10.80
2018-11-14T05:34:46.685Z,11.10
2018-11-14T05:35:46.715Z,11.00
2018-11-14T05:36:46.704Z,11.20
2018-11-14T05:37:46.759Z,11.50
2018-11-14T05:38:46.711Z,11.30
2018-11-14T05:39:46.752Z,11.30
2018-11-14T05:40:46.688Z,11.20
2018-11-14T05:41:46.638Z,11.70
2018-11-14T05:42:46.644Z,11.10
2018-11-14T05:43:46.661Z,10.70
2018-11-14T05:44:46.723Z,11.20
2018-11-14T05:45:46.632Z,11.30
2018-11-14T05:46:46.588Z,12.10
2018-11-14T05:47:46.587Z,12.20
2018-11-14T05:48:46.596Z,12.40
2018-11-14T05:49:46.604Z,11.30
2018-11-14T05:50:46.543Z,12.00
2018-11-14T05:51:46.539Z,12.00
2018-11-14T05:52:46.533Z,12.00
2018-11-14T05:53:46.552Z,11.30
2018-11-14T05:54:46.560Z,12.30
2018-11-14T05:55:46.492Z,12.20
2018-11-14T05:56:46.603Z,12.60
2018-11-14T05:57:46.473Z,13.60
2018-11-14T05:58:46.452Z,15.40
2018-11-14T05:59:46.446Z,15.40
2018-11-14T06:00:46.452Z,15.70
2018-11-14T06:01:46.472Z,17.20
2018-11-14T06:02:46.414Z,16.90
2018-11-14T06:03:46.361Z,17.50
2018-11-14T06:04:46.397Z,17.90
2018-11-14T06:05:46.382Z,17.70
2018-11-14T06:06:46.401Z,17.80
2018-11-14T06:07:46.384Z,18.60
2018-11-14T06:08:46.378Z,18.00
2018-11-14T06:09:46.358Z,18.20
2018-11-14T06:10:46.283Z,18.80
2018-11-14T06:11:46.321Z,18.70
2018-11-14T06:12:46.306Z,17.90
2018-11-14T06:13:46.326Z,18.40
2018-11-14T06:14:46.290Z,18.20
2018-11-14T06:15:46.238Z,18.00
2018-11-14T06:16:46.221Z,18.10
2018-11-14T06:17:46.272Z,19.00
2018-11-14T06:18:46.269Z,19.70
2018-11-14T06:19:46.239Z,18.20
2018-11-14T06:20:46.247Z,18.10
2018-11-14T06:21:46.247Z,17.60
2018-11-14T06:22:46.193Z,17.60
2018-11-14T06:23:46.202Z,18.10
2018-11-14T06:24:46.182Z,17.80
2018-11-14T06:25:46.196Z,18.10
2018-11-14T06:26:46.157Z,18.30
2018-11-14T06:27:46.139Z,17.20
2018-11-14T06:28:46.129Z,17.20
2018-11-14T06:29:46.185Z,17.20
2018-11-14T06:30:46.141Z,17.80
2018-11-14T06:31:46.093Z,17.80
2018-11-14T06:32:46.086Z,18.30
2018-11-14T06:33:46.095Z,18.10
2018-11-14T06:34:46.065Z,17.50
2018-11-14T06:35:46.066Z,18.10
2018-11-14T06:36:46.070Z,19.10
2018-11-14T06:37:46.117Z,19.30
2018-11-14T06:38:46.056Z,18.80
2018-11-14T06:39:46.008Z,18.10
2018-11-14T06:40:45.958Z,18.80
2018-11-14T06:41:46.091Z,18.40
2018-11-14T06:42:45.987Z,18.60
2018-11-14T06:43:46.049Z,17.80
2018-11-14T06:44:45.967Z,17.80
2018-11-14T06:45:45.941Z,18.80
2018-11-14T06:46:45.931Z,17.30
2018-11-14T06:47:45.972Z,18.00
2018-11-14T06:48:45.939Z,18.30
2018-11-14T06:49:45.935Z,18.90
2018-11-14T06:50:45.890Z,17.30
2018-11-14T06:51:45.879Z,17.00
2018-11-14T06:52:45.960Z,18.20
2018-11-14T06:53:45.877Z,17.50
2018-11-14T06:54:45.877Z,16.60
2018-11-14T06:55:45.842Z,16.50
2018-11-14T06:56:45.777Z,16.40
2018-11-14T06:57:45.867Z,18.20
2018-11-14T06:58:45.833Z,16.50
2018-11-14T06:59:45.880Z,16.40
2018-11-14T07:00:45.816Z,17.00
2018-11-14T07:01:45.775Z,16.50
2018-11-14T07:02:45.798Z,15.70
2018-11-14T07:03:45.748Z,16.90
2018-11-14T07:04:45.735Z,15.50
2018-11-14T07:05:45.871Z,15.40
2018-11-14T07:06:45.746Z,15.50
2018-11-14T07:07:45.735Z,16.00
2018-11-14T07:08:45.650Z,16.20
2018-11-14T07:09:45.681Z,16.40
2018-11-14T07:10:45.678Z,16.90
2018-11-14T07:11:45.700Z,16.70
2018-11-14T07:12:45.653Z,16.60
2018-11-14T07:13:45.622Z,15.80
2018-11-14T07:14:45.643Z,16.60
2018-11-14T07:15:45.617Z,17.00
2018-11-14T07:16:45.609Z,16.00
2018-11-14T07:17:45.623Z,16.30
2018-11-14T07:18:45.625Z,15.20
2018-11-14T07:19:45.618Z,16.30
2018-11-14T07:20:45.573Z,16.30
2018-11-14T07:21:45.564Z,17.80
2018-11-14T07:22:45.488Z,16.40
2018-11-14T07:23:45.533Z,15.70
2018-11-14T07:24:45.579Z,16.60
2018-11-14T07:25:45.511Z,15.50
2018-11-14T07:26:45.497Z,16.50
2018-11-14T07:27:45.481Z,17.10
2018-11-14T07:28:45.498Z,16.00
2018-11-14T07:29:45.462Z,16.60
2018-11-14T07:30:45.514Z,16.80
2018-11-14T07:31:45.439Z,15.60
2018-11-14T07:32:45.437Z,15.90
2018-11-14T07:33:45.414Z,15.10
2018-11-14T07:34:45.422Z,14.90
2018-11-14T07:35:45.429Z,15.10
2018-11-14T07:36:45.349Z,15.70
2018-11-14T07:37:45.464Z,16.20
2018-11-14T07:38:45.360Z,16.70
2018-11-14T07:39:45.360Z,15.20
2018-11-14T07:40:45.343Z,15.80
2018-11-14T07:41:45.367Z,15.00
2018-11-14T07:42:45.283Z,14.80
2018-11-14T07:43:45.394Z,15.40
2018-11-14T07:44:45.330Z,15.10
2018-11-14T07:45:45.285Z,15.10
2018-11-14T07:46:45.372Z,15.20
2018-11-14T07:47:45.263Z,14.90
2018-11-14T07:48:45.318Z,14.90
2018-11-14T07:49:45.241Z,15.40
2018-11-14T07:50:45.185Z,14.70
2018-11-14T07:51:45.278Z,14.80
2018-11-14T07:52:45.234Z,15.10
2018-11-14T07:53:45.272Z,15.70
2018-11-14T07:54:45.271Z,15.30
2018-11-14T07:55:45.172Z,14.50
2018-11-14T07:56:45.164Z,14.50
2018-11-14T07:57:48.664Z,14.70
2018-11-14T07:58:45.180Z,14.50
2018-11-14T07:59:45.140Z,13.60
2018-11-14T08:00:45.163Z,13.20
2018-11-14T08:01:45.075Z,13.90
2018-11-14T08:02:45.106Z,14.50
2018-11-14T08:03:45.121Z,13.50
2018-11-14T08:04:45.077Z,13.30
2018-11-14T08:05:45.065Z,13.50
2018-11-14T08:06:45.096Z,13.50
2018-11-14T08:07:45.131Z,13.30
2018-11-14T08:08:45.032Z,12.90
2018-11-14T08:09:45.054Z,13.40
2018-11-14T08:10:45.023Z,13.10
2018-11-14T08:11:45.014Z,13.10
2018-11-14T08:12:44.991Z,12.70
2018-11-14T08:13:45.004Z,12.70
2018-11-14T08:14:44.981Z,13.40
2018-11-14T08:15:44.997Z,13.90
2018-11-14T08:16:44.950Z,13.60
2018-11-14T08:17:44.932Z,13.70
2018-11-14T08:18:44.948Z,13.80
2018-11-14T08:19:44.951Z,12.90
2018-11-14T08:20:44.907Z,13.20
2018-11-14T08:21:44.945Z,12.80
2018-11-14T08:22:44.883Z,12.50
2018-11-14T08:23:44.868Z,12.50
2018-11-14T08:24:44.918Z,12.70
2018-11-14T08:25:44.855Z,13.80
2018-11-14T08:26:44.845Z,13.90
2018-11-14T08:27:44.847Z,13.90
2018-11-14T08:28:44.817Z,13.80
2018-11-14T08:29:44.799Z,13.70
2018-11-14T08:30:44.841Z,14.40
2018-11-14T08:31:44.815Z,13.60
2018-11-14T08:32:44.773Z,12.30
2018-11-14T08:33:44.731Z,12.60
2018-11-14T08:34:44.748Z,13.80
2018-11-14T08:35:44.793Z,13.00
2018-11-14T08:36:44.677Z,13.10
2018-11-14T08:37:44.709Z,13.30
2018-11-14T08:38:44.699Z,13.80
2018-11-14T08:39:44.646Z,13.60
2018-11-14T08:40:44.717Z,13.40
2018-11-14T08:41:44.708Z,13.80
2018-11-14T08:42:44.691Z,14.30
2018-11-14T08:43:44.741Z,14.50
2018-11-14T08:44:44.633Z,13.10
2018-11-14T08:45:44.667Z,13.20
2018-11-14T08:46:44.642Z,13.10
2018-11-14T08:47:44.614Z,13.80
2018-11-14T08:48:44.588Z,13.80
2018-11-14T08:49:44.622Z,14.20
2018-11-14T08:50:44.608Z,14.20
2018-11-14T08:51:44.558Z,13.60
2018-11-14T08:52:44.548Z,13.70
2018-11-14T08:53:44.574Z,14.40
2018-11-14T08:54:44.532Z,13.90
2018-11-14T08:55:44.559Z,12.90
2018-11-14T08:56:44.506Z,13.60
2018-11-14T08:57:44.562Z,13.60
2018-11-14T08:58:44.478Z,12.70
2018-11-14T08:59:44.555Z,13.90
2018-11-14T09:00:44.462Z,14.00
2018-11-14T09:01:44.455Z,13.70
2018-11-14T09:02:44.397Z,13.70
2018-11-14T09:03:45.123Z,13.30
2018-11-14T09:04:44.447Z,13.70
2018-11-14T09:05:44.362Z,13.50
2018-11-14T09:06:44.398Z,13.90
2018-11-14T09:07:44.419Z,14.30
2018-11-14T09:08:44.408Z,14.40
2018-11-14T09:09:44.363Z,15.20
2018-11-14T09:10:44.361Z,13.50
2018-11-14T09:11:44.369Z,13.30
2018-11-14T09:12:44.350Z,13.80
2018-11-14T09:13:44.336Z,13.50
2018-11-14T09:14:44.370Z,13.60
2018-11-14T09:15:44.309Z,13.90
2018-11-14T09:16:44.288Z,13.60
2018-11-14T09:17:44.425Z,13.90
2018-11-14T09:18:44.392Z,13.70
2018-11-14T09:19:44.260Z,13.60
2018-11-14T09:20:44.240Z,12.70
2018-11-14T09:21:44.229Z,13.10
2018-11-14T09:22:44.272Z,12.70
2018-11-14T09:23:44.272Z,13.40
2018-11-14T09:24:44.258Z,13.50
2018-11-14T09:25:44.186Z,12.70
2018-11-14T09:26:44.199Z,12.80
2018-11-14T09:27:44.170Z,12.70
2018-11-14T09:28:44.164Z,13.20
2018-11-14T09:29:44.181Z,12.70
2018-11-14T09:30:44.134Z,13.30
2018-11-14T09:31:44.155Z,12.80
2018-11-14T09:32:44.074Z,13.10
2018-11-14T09:33:44.113Z,12.90
2018-11-14T09:34:44.144Z,12.60
2018-11-14T09:35:44.119Z,12.70
2018-11-14T09:36:44.034Z,13.50
2018-11-14T09:37:44.022Z,13.60
2018-11-14T09:38:44.049Z,13.70
2018-11-14T09:39:44.041Z,13.00
2018-11-14T09:40:44.112Z,12.40
2018-11-14T09:41:44.028Z,12.40
2018-11-14T09:42:43.965Z,12.60
2018-11-14T09:43:44.057Z,11.60
2018-11-14T09:44:43.984Z,12.50
2018-11-14T09:45:43.987Z,12.90
2018-11-14T09:46:43.920Z,13.10
2018-11-14T09:47:43.958Z,12.30
2018-11-14T09:48:43.972Z,13.50
2018-11-14T09:49:43.922Z,13.60
2018-11-14T09:50:43.925Z,12.90
2018-11-14T09:51:43.911Z,12.60
2018-11-14T09:52:43.924Z,12.00
2018-11-14T09:53:43.894Z,12.60
2018-11-14T09:54:43.891Z,12.60
2018-11-14T09:55:43.865Z,12.10
2018-11-14T09:56:43.872Z,11.50
2018-11-14T09:57:43.882Z,11.90
2018-11-14T09:58:43.918Z,11.70
2018-11-14T09:59:43.816Z,11.40
2018-11-14T10:00:43.831Z,11.40
2018-11-14T10:01:43.804Z,11.40
2018-11-14T10:02:43.877Z,10.70
2018-11-14T10:03:43.764Z,10.80
2018-11-14T10:04:43.770Z,10.70
2018-11-14T10:05:43.822Z,11.20
2018-11-14T10:06:43.748Z,10.20
2018-11-14T10:07:43.698Z,10.70
2018-11-14T10:08:43.770Z,9.60
2018-11-14T10:09:43.718Z,9.50
2018-11-14T10:10:43.766Z,9.60
2018-11-14T10:11:43.692Z,10.30
2018-11-14T10:12:43.685Z,9.40
2018-11-14T10:13:43.695Z,9.70
2018-11-14T10:14:43.701Z,9.80
2018-11-14T10:15:43.739Z,10.60
2018-11-14T10:16:43.635Z,9.40
2018-11-14T10:17:43.628Z,9.10
2018-11-14T10:18:43.609Z,9.20
2018-11-14T10:19:43.692Z,9.20
2018-11-14T10:20:43.622Z,8.90
2018-11-14T10:21:43.673Z,9.40
2018-11-14T10:22:43.568Z,9.20
2018-11-14T10:23:43.564Z,9.40
2018-11-14T10:24:43.624Z,9.40
2018-11-14T10:25:43.547Z,8.70
2018-11-14T10:26:43.650Z,8.50
2018-11-14T10:27:43.481Z,8.30
2018-11-14T10:28:43.516Z,8.60
2018-11-14T10:29:43.489Z,9.10
2018-11-14T10:30:43.531Z,7.70
2018-11-14T10:31:43.596Z,7.40
2018-11-14T10:32:43.459Z,7.80
2018-11-14T10:33:43.468Z,7.70
2018-11-14T10:34:43.441Z,7.20
2018-11-14T10:35:43.569Z,7.10
2018-11-14T10:36:43.414Z,7.30
2018-11-14T10:37:43.408Z,7.30
2018-11-14T10:38:43.395Z,6.50
2018-11-14T10:39:43.402Z,6.90
2018-11-14T10:40:43.403Z,7.30
2018-11-14T10:41:43.318Z,6.70
2018-11-14T10:42:43.369Z,7.00
2018-11-14T10:43:43.369Z,7.70
2018-11-14T10:44:43.339Z,7.50
2018-11-14T10:45:43.448Z,7.20
2018-11-14T10:46:43.335Z,6.50
2018-11-14T10:47:43.299Z,7.10
2018-11-14T10:48:43.244Z,6.90
2018-11-14T10:49:43.332Z,7.40
2018-11-14T10:50:43.214Z,6.70
2018-11-14T10:51:43.286Z,6.30
2018-11-14T10:52:43.258Z,7.00
2018-11-14T10:53:43.233Z,6.50
2018-11-14T10:54:43.220Z,6.30
2018-11-14T10:55:43.270Z,6.10
2018-11-14T10:56:43.207Z,6.20
2018-11-14T10:57:43.184Z,6.80
2018-11-14T10:58:43.180Z,6.10
2018-11-14T10:59:43.125Z,6.10
2018-11-14T11:00:43.184Z,6.20
2018-11-14T11:01:43.123Z,6.50
2018-11-14T11:02:43.138Z,6.00
2018-11-14T11:03:43.147Z,6.40
2018-11-14T11:04:43.110Z,6.10
2018-11-14T11:05:43.119Z,6.90
2018-11-14T11:06:43.088Z,6.10
2018-11-14T11:07:43.070Z,6.30
2018-11-14T11:08:43.139Z,6.40
2018-11-14T11:09:43.049Z,6.00
2018-11-14T11:10:43.042Z,5.80
2018-11-14T11:11:43.031Z,6.50
2018-11-14T11:12:43.016Z,5.50
2018-11-14T11:13:43.110Z,5.20
2018-11-14T11:14:43.011Z,5.20
2018-11-14T11:15:42.983Z,5.00
2018-11-14T11:16:42.977Z,5.50
2018-11-14T11:17:42.967Z,5.50
2018-11-14T11:18:42.934Z,5.70
2018-11-14T11:19:42.953Z,5.20
2018-11-14T11:20:42.928Z,5.70
2018-11-14T11:21:42.922Z,5.40
2018-11-14T11:22:42.905Z,5.70
2018-11-14T11:23:42.888Z,5.20
2018-11-14T11:24:42.895Z,5.00
2018-11-14T11:25:42.901Z,4.80
2018-11-14T11:26:42.864Z,5.50
2018-11-14T11:27:42.878Z,5.40
2018-11-14T11:28:42.893Z,4.90
2018-11-14T11:29:42.828Z,5.00
2018-11-14T11:30:42.879Z,5.10
2018-11-14T11:31:42.813Z,5.60
2018-11-14T11:32:42.766Z,4.80
2018-11-14T11:33:42.786Z,5.00
2018-11-14T11:34:42.835Z,5.20
2018-11-14T11:35:42.775Z,5.00
2018-11-14T11:36:42.747Z,5.20
2018-11-14T11:37:42.742Z,5.30
2018-11-14T11:38:42.769Z,5.20
2018-11-14T11:39:42.736Z,5.10
2018-11-14T11:40:42.709Z,5.00
2018-11-14T11:41:42.734Z,4.90
2018-11-14T11:42:42.659Z,5.30
2018-11-14T11:43:42.677Z,5.20
2018-11-14T11:44:42.622Z,5.70
2018-11-14T11:45:42.652Z,5.10
2018-11-14T11:46:42.679Z,5.40
2018-11-14T11:47:42.638Z,5.40
2018-11-14T11:48:42.658Z,4.90
2018-11-14T11:49:42.607Z,5.60
2018-11-14T11:50:42.597Z,5.30
2018-11-14T11:51:42.633Z,5.20
2018-11-14T11:52:42.571Z,5.40
2018-11-14T11:53:42.568Z,5.20
2018-11-14T11:54:42.552Z,5.20
2018-11-14T11:55:42.543Z,5.30
2018-11-14T11:56:42.538Z,5.50
2018-11-14T11:57:42.543Z,5.60
2018-11-14T11:58:42.525Z,5.20
2018-11-14T11:59:42.624Z,5.30
2018-11-14T12:00:42.664Z,7.60
2018-11-14T12:01:42.496Z,5.90
2018-11-14T12:02:42.483Z,5.40
2018-11-14T12:03:42.505Z,5.10
2018-11-14T12:04:42.447Z,5.10
2018-11-14T12:05:42.434Z,4.80
2018-11-14T12:06:42.422Z,5.20
2018-11-14T12:07:42.416Z,5.50
2018-11-14T12:08:42.431Z,5.70
2018-11-14T12:09:42.389Z,5.00
2018-11-14T12:10:42.551Z,5.20
2018-11-14T12:11:42.427Z,5.20
2018-11-14T12:12:42.376Z,4.90
2018-11-14T12:13:42.400Z,5.10
2018-11-14T12:14:42.335Z,5.10
2018-11-14T12:15:42.369Z,5.00
2018-11-14T12:16:42.326Z,5.00
2018-11-14T12:17:42.350Z,4.60
2018-11-14T12:18:42.288Z,5.40
2018-11-14T12:19:42.280Z,5.50
2018-11-14T12:20:42.298Z,5.70
2018-11-14T12:21:42.261Z,5.30
2018-11-14T12:22:42.252Z,4.80
2018-11-14T12:23:42.352Z,5.00
2018-11-14T12:24:42.253Z,4.60
2018-11-14T12:25:42.220Z,4.80
2018-11-14T12:26:42.210Z,4.50
2018-11-14T12:27:42.291Z,4.70
2018-11-14T12:28:42.188Z,4.70
2018-11-14T12:29:42.182Z,4.90
2018-11-14T12:30:42.348Z,5.50
2018-11-14T12:31:42.114Z,4.90
2018-11-14T12:32:42.206Z,4.70
2018-11-14T12:33:42.128Z,5.30
2018-11-14T12:34:42.185Z,5.00
2018-11-14T12:35:42.183Z,4.90
2018-11-14T12:36:42.047Z,5.00
2018-11-14T12:37:42.257Z,4.70
2018-11-14T12:38:42.144Z,4.70
2018-11-14T12:39:42.065Z,5.10
2018-11-14T12:40:42.050Z,4.90
2018-11-14T12:41:41.995Z,5.10
2018-11-14T12:42:42.079Z,4.70
2018-11-14T12:43:41.979Z,4.70
2018-11-14T12:44:42.035Z,4.70
2018-11-14T12:45:41.952Z,4.40
2018-11-14T12:46:41.981Z,4.60
2018-11-14T12:47:42.035Z,4.80
2018-11-14T12:48:41.961Z,4.40
2018-11-14T12:49:42.000Z,5.00
2018-11-14T12:50:41.940Z,4.30
2018-11-14T12:51:42.001Z,4.30
2018-11-14T12:52:42.023Z,4.10
2018-11-14T12:53:41.907Z,4.30
2018-11-14T12:54:41.902Z,4.20
2018-11-14T12:55:41.878Z,3.90
2018-11-14T12:56:41.872Z,4.30
2018-11-14T12:57:41.908Z,4.20
2018-11-14T12:58:41.864Z,4.00
2018-11-14T12:59:41.900Z,4.10
2018-11-14T13:00:41.824Z,4.20
2018-11-14T13:01:41.776Z,4.20
2018-11-14T13:02:41.837Z,4.40
2018-11-14T13:03:41.793Z,4.00
2018-11-14T13:04:41.813Z,4.30
2018-11-14T13:05:41.780Z,4.30
2018-11-14T13:06:41.805Z,4.00
2018-11-14T13:07:41.762Z,4.20
2018-11-14T13:08:41.777Z,3.80